This is the latest recevied weather packets stored in our database for station/object KE0SWK-13. If no packets are shown the sender has not sent any weather packets the latest 10 day(s).
| Time | Temp. | Humidity | Pressure | Rain* | Wind** | Luminosity | Snow |
|---|---|---|---|---|---|---|---|
| 1788330707 | -17.78° C | 100% | 0 hPa | 0 mm | - | - | - |
| 1788328269 | -17.78° C | 100% | 0 hPa | 0 mm | - | - | - |
| 1788327970 | -17.78° C | 100% | 0 hPa | 0 mm | - | - | - |
| 1788326151 | -17.78° C | 100% | 0 hPa | 0 mm | - | - | - |
| 1788321624 | 28.89° C | 54% | 0 hPa | 0 mm | - | - | - |
| 1788316224 | 28.33° C | 55% | 0 hPa | 0 mm | - | - | - |
| 1788316186 | 28.33° C | 55% | 0 hPa | 0 mm | - | - | - |
| 1788315444 | -17.78° C | 100% | 0 hPa | 0 mm | - | - | - |
| 1788315278 | -17.78° C | 100% | 0 hPa | 0 mm | - | - | - |
| 1788313682 | -17.78° C | 100% | 0 hPa | 0 mm | - | - | - |
| 1788313633 | -17.78° C | 100% | 0 hPa | 0 mm | - | - | - |
| 1788313465 | -17.78° C | 100% | 0 hPa | 0 mm | - | - | - |
| 1788312558 | -17.78° C | 100% | 0 hPa | 0 mm | - | - | - |
| 1788308909 | -17.78° C | 100% | 0 hPa | 0 mm | - | - | - |
| 1788308002 | -17.78° C | 100% | 0 hPa | 0 mm | - | - | - |
| 1788307095 | -17.78° C | 100% | 0 hPa | 0 mm | - | - | - |
| 1788306194 | 36.67° C | 35% | 0 hPa | 0 mm | - | - | - |
| 1788305287 | -17.78° C | 100% | 0 hPa | 0 mm | - | - | - |
| 1788304381 | 37.22° C | 33% | 0 hPa | 0 mm | - | - | - |
| 1788303475 | -17.78° C | 100% | 0 hPa | 0 mm | - | - | - |
| 1788302568 | 37.78° C | 31% | 0 hPa | 0 mm | - | - | - |
| 1788300755 | 38.89° C | 31% | 0 hPa | 0 mm | - | - | - |
| 1788299849 | -17.78° C | 100% | 0 hPa | 0 mm | - | - | - |
| 1788298945 | 39.44° C | 30% | 0 hPa | 0 mm | - | - | - |
| 1788298038 | -17.78° C | 100% | 0 hPa | 0 mm | - | - | - |
* Rain latest hour (hover to see other rain measurements)
** Current wind speed in m/s (hover to see current wind gust speed)